»·PEaware :: N206SF KPMD-KSBA

N206SF :: KPMD-KSBA

FLIGHT INFORMATION

Flight Status: Arrived
Operator: Privately registered:
United States
More flights under this callsign
Pilot: Brad F. (31537)
Aircraft: CESSNA 172 SKYHAWK
(C172)
More flights by this aircraft type
Origin: KPMD Palmdale AF Plant 42
United States
Destination: KSBA Santa Barbara Mun
United States
More flights between these airports :: More routes between these airports
Route: +
File this flight plan on PilotEdge
Remarks:
Altitude:
(Current/Filed)
8,500ft
Speed:
(Current/Filed)
0kts
Departed: 19-Oct-20 08:19 PM
Arrived: 19-Oct-20 09:14 PM
Distance/Time
Traveled:
88nm/0:54
Distance/Time
To Go:
Arrived

Flight Plot

Page will automatically refresh every two minutes.

Flight plan parsing failed; only flown route is shown


Map Options




Map Legend


Flown Route
Filed Route
Departure Airport
Arrival Airport
Navaid (VOR, NDB)
Fix

Horizontal Profiles

Position Reports

Time Latitude Longitude Heading Altitude Ground
Speed
19-Oct-20 20:17 34.560262 -117.871479 264 8500ft 111kts
19-Oct-20 20:18 34.557392 -117.908767 264 8499ft 111kts
19-Oct-20 20:19 34.554525 -117.945994 264 8500ft 110kts
19-Oct-20 20:20 34.551676 -117.983294 264 8499ft 111kts
19-Oct-20 20:21 34.548870 -118.020024 264 8500ft 111kts
19-Oct-20 20:22 34.546061 -118.057123 264 8500ft 110kts
19-Oct-20 20:23 34.543232 -118.094347 264 8499ft 111kts
19-Oct-20 20:24 34.540409 -118.131521 264 8499ft 110kts
19-Oct-20 20:25 34.537565 -118.168684 264 8499ft 111kts
19-Oct-20 20:26 34.534723 -118.205805 264 8500ft 111kts
19-Oct-20 20:27 34.531917 -118.242855 264 8501ft 111kts
19-Oct-20 20:28 34.529078 -118.280115 264 8499ft 111kts
19-Oct-20 20:29 34.526258 -118.317447 264 8501ft 111kts
19-Oct-20 20:30 34.523416 -118.354853 265 8499ft 111kts
19-Oct-20 20:31 34.520591 -118.392090 264 8501ft 111kts
19-Oct-20 20:32 34.517759 -118.429445 264 8498ft 110kts
19-Oct-20 20:33 34.514965 -118.466633 265 8498ft 110kts
19-Oct-20 20:34 34.512158 -118.504036 264 8500ft 111kts
19-Oct-20 20:35 34.509372 -118.541438 265 8497ft 111kts
19-Oct-20 20:36 34.506578 -118.578760 265 8499ft 111kts
19-Oct-20 20:37 34.504262 -118.616149 274 8499ft 111kts
19-Oct-20 20:38 34.507012 -118.653359 275 8499ft 111kts
19-Oct-20 20:39 34.509975 -118.693274 275 8500ft 122kts
19-Oct-20 20:40 34.513017 -118.734628 275 8502ft 123kts
19-Oct-20 20:41 34.516042 -118.775797 275 8498ft 123kts
19-Oct-20 20:42 34.519083 -118.817064 275 8498ft 122kts
19-Oct-20 20:43 34.522119 -118.858309 275 8501ft 123kts
19-Oct-20 20:44 34.525195 -118.899958 275 8499ft 124kts
19-Oct-20 20:45 34.528263 -118.941568 275 8503ft 123kts
19-Oct-20 20:46 34.531333 -118.982996 275 8500ft 122kts
19-Oct-20 20:47 34.534393 -119.024348 275 8501ft 123kts
19-Oct-20 20:48 34.537520 -119.066204 275 8497ft 124kts
19-Oct-20 20:49 34.540598 -119.107862 275 8499ft 124kts
19-Oct-20 20:50 34.543679 -119.149501 275 8501ft 123kts
19-Oct-20 20:51 34.544043 -119.191169 265 8499ft 124kts
19-Oct-20 20:52 34.541537 -119.232842 266 8500ft 123kts
19-Oct-20 20:53 34.539109 -119.273962 266 8499ft 123kts
19-Oct-20 20:54 34.536691 -119.315395 266 8502ft 123kts
19-Oct-20 20:55 34.528069 -119.355161 251 8499ft 124kts
19-Oct-20 20:56 34.516063 -119.392764 237 8312ft 116kts
19-Oct-20 20:57 34.490640 -119.417978 214 7482ft 121kts
19-Oct-20 20:59 34.464451 -119.440282 215 6926ft 116kts
19-Oct-20 21:00 34.438081 -119.461374 210 6315ft 108kts
19-Oct-20 21:01 34.418140 -119.484480 263 5243ft 104kts
19-Oct-20 21:02 34.418091 -119.517484 270 4260ft 95kts
19-Oct-20 21:03 34.418139 -119.548771 269 3349ft 86kts
19-Oct-20 21:04 34.418698 -119.577599 272 2625ft 85kts
19-Oct-20 21:05 34.419986 -119.606708 272 2616ft 88kts
19-Oct-20 21:06 34.420685 -119.636934 272 2618ft 92kts
19-Oct-20 21:07 34.424610 -119.667862 281 2553ft 92kts
19-Oct-20 21:08 34.428893 -119.699917 278 2129ft 97kts
19-Oct-20 21:09 34.430011 -119.731632 269 1617ft 85kts
19-Oct-20 21:10 34.429789 -119.759134 268 1210ft 81kts
19-Oct-20 21:11 34.429536 -119.786504 267 891ft 82kts
19-Oct-20 21:12 34.428594 -119.813463 267 506ft 75kts
19-Oct-20 21:13 34.427865 -119.838317 269 18ft 56kts
19-Oct-20 21:14 34.428651 -119.841985 347 15ft 0kts
19-Oct-20 21:15 34.428915 -119.842071 342 14ft 10kts

Navigation Log

Ident Type
Flight plan parsing failed, navigation log unavailable